createdAt,value
2023-12-15T00:00:25.382Z,1.18
2023-12-15T00:02:52.315Z,1.19
2023-12-15T00:05:19.316Z,1.19
2023-12-15T00:07:46.454Z,1.18
2023-12-15T00:10:13.398Z,1.18
2023-12-15T00:12:40.401Z,1.18
2023-12-15T00:15:07.242Z,1.19
2023-12-15T00:17:34.454Z,1.20
2023-12-15T00:20:01.675Z,1.20
2023-12-15T00:22:28.582Z,1.19
2023-12-15T00:24:55.448Z,1.18
2023-12-15T00:27:22.443Z,1.17
2023-12-15T00:29:49.420Z,1.16
2023-12-15T00:32:16.321Z,1.12
2023-12-15T00:34:43.113Z,1.08
2023-12-15T00:37:10.045Z,1.05
2023-12-15T00:39:36.995Z,1.03
2023-12-15T00:42:03.835Z,1.03
2023-12-15T00:44:30.718Z,1.00
2023-12-15T00:46:57.715Z,0.96
2023-12-15T00:49:24.474Z,0.93
2023-12-15T00:51:51.519Z,0.90
2023-12-15T00:54:18.461Z,0.89
2023-12-15T00:56:45.301Z,0.86
2023-12-15T00:59:12.297Z,0.84
2023-12-15T01:01:39.181Z,0.80
2023-12-15T01:04:06.439Z,0.75
2023-12-15T01:06:33.333Z,0.71
2023-12-15T01:09:00.335Z,0.69
2023-12-15T01:11:27.332Z,0.69
2023-12-15T01:13:54.433Z,0.68
2023-12-15T01:16:21.281Z,0.66
2023-12-15T01:18:48.312Z,0.65
2023-12-15T01:21:15.251Z,0.62
2023-12-15T01:23:42.534Z,0.61
2023-12-15T01:26:09.379Z,0.60
2023-12-15T01:28:36.289Z,0.58
2023-12-15T01:31:03.161Z,0.57
2023-12-15T01:33:30.212Z,0.57
2023-12-15T01:35:57.338Z,0.58
2023-12-15T01:38:24.483Z,0.55
2023-12-15T01:40:51.590Z,0.52
2023-12-15T01:43:18.977Z,0.51
2023-12-15T01:45:45.829Z,0.49
2023-12-15T01:48:13.155Z,0.47
2023-12-15T01:50:40.381Z,0.46
2023-12-15T01:53:07.400Z,0.44
2023-12-15T01:55:34.426Z,0.41
2023-12-15T01:58:01.343Z,0.37
2023-12-15T02:00:28.447Z,0.32
2023-12-15T02:02:55.373Z,0.28
2023-12-15T02:05:22.676Z,0.25
2023-12-15T02:07:49.651Z,0.24
2023-12-15T02:10:16.596Z,0.23
2023-12-15T02:12:43.442Z,0.23
2023-12-15T02:15:10.513Z,0.21
2023-12-15T02:17:37.589Z,0.18
2023-12-15T02:20:04.916Z,0.16
2023-12-15T02:22:31.728Z,0.15
2023-12-15T02:24:58.712Z,0.14
2023-12-15T02:27:25.538Z,0.12
2023-12-15T02:29:52.457Z,0.09
2023-12-15T02:32:19.401Z,0.06
2023-12-15T02:34:46.477Z,0.05
2023-12-15T02:37:13.297Z,0.05
2023-12-15T02:39:40.238Z,0.03
2023-12-15T02:42:07.104Z,0.01
2023-12-15T02:44:33.917Z,-0.02
2023-12-15T02:47:01.103Z,-0.04
2023-12-15T02:49:27.950Z,-0.05
2023-12-15T02:51:54.855Z,-0.06
2023-12-15T02:54:21.703Z,-0.08
2023-12-15T02:56:48.644Z,-0.10
2023-12-15T02:59:15.522Z,-0.10
2023-12-15T03:01:42.538Z,-0.11
2023-12-15T03:04:09.381Z,-0.12
2023-12-15T03:06:36.310Z,-0.14
2023-12-15T03:09:03.163Z,-0.17
2023-12-15T03:11:30.530Z,-0.21
2023-12-15T03:13:57.583Z,-0.24
2023-12-15T03:16:24.498Z,-0.26
2023-12-15T03:18:51.371Z,-0.28
2023-12-15T03:21:18.287Z,-0.31
2023-12-15T03:23:45.152Z,-0.35
2023-12-15T03:26:12.006Z,-0.39
2023-12-15T03:28:38.913Z,-0.42
2023-12-15T03:31:06.060Z,-0.44
2023-12-15T03:33:32.966Z,-0.45
2023-12-15T03:35:59.958Z,-0.47
2023-12-15T03:38:27.019Z,-0.49
2023-12-15T03:40:53.979Z,-0.52
2023-12-15T03:43:20.680Z,-0.54
2023-12-15T03:45:47.547Z,-0.57
2023-12-15T03:48:14.535Z,-0.62
2023-12-15T03:50:41.529Z,-0.67
2023-12-15T03:53:08.845Z,-0.74
2023-12-15T03:55:35.829Z,-0.82
2023-12-15T03:58:02.770Z,-0.89
2023-12-15T04:00:29.697Z,-0.96
2023-12-15T04:02:56.595Z,-1.01
2023-12-15T04:05:23.771Z,-1.06
2023-12-15T04:07:50.752Z,-1.10
2023-12-15T04:10:17.698Z,-1.14
2023-12-15T04:12:44.535Z,-1.18
2023-12-15T04:15:11.785Z,-1.23
2023-12-15T04:17:38.973Z,-1.26
2023-12-15T04:20:06.512Z,-1.30
2023-12-15T04:22:33.536Z,-1.34
2023-12-15T04:25:00.487Z,-1.39
2023-12-15T04:27:27.456Z,-1.44
2023-12-15T04:29:54.474Z,-1.48
2023-12-15T04:32:21.760Z,-1.54
2023-12-15T04:34:48.665Z,-1.58
2023-12-15T04:37:15.619Z,-1.62
2023-12-15T04:39:42.469Z,-1.65
2023-12-15T04:42:09.712Z,-1.68
2023-12-15T04:44:36.692Z,-1.73
2023-12-15T04:47:03.615Z,-1.77
2023-12-15T04:49:30.335Z,-1.78
2023-12-15T04:51:57.179Z,-1.75
2023-12-15T04:54:24.435Z,-1.70
2023-12-15T04:56:51.269Z,-1.66
2023-12-15T04:59:18.257Z,-1.61
2023-12-15T05:01:45.048Z,-1.56
2023-12-15T05:04:11.910Z,-1.55
2023-12-15T05:06:38.778Z,-1.55
2023-12-15T05:09:05.789Z,-1.53
2023-12-15T05:11:32.650Z,-1.52
2023-12-15T05:13:59.599Z,-1.49
2023-12-15T05:16:26.784Z,-1.48
2023-12-15T05:18:54.245Z,-1.46
2023-12-15T05:21:21.359Z,-1.46
2023-12-15T05:23:48.167Z,-1.45
2023-12-15T05:26:15.033Z,-1.43
2023-12-15T05:28:41.953Z,-1.42
2023-12-15T05:31:08.893Z,-1.40
2023-12-15T05:33:35.918Z,-1.36
2023-12-15T05:36:03.010Z,-1.31
2023-12-15T05:38:30.267Z,-1.27
2023-12-15T05:40:57.112Z,-1.24
2023-12-15T05:43:24.028Z,-1.24
2023-12-15T05:45:50.977Z,-1.26
2023-12-15T05:48:18.002Z,-1.27
2023-12-15T05:50:45.216Z,-1.25
2023-12-15T05:53:12.127Z,-1.24
2023-12-15T05:55:39.061Z,-1.24
2023-12-15T05:58:05.907Z,-1.25
2023-12-15T06:00:32.848Z,-1.27
2023-12-15T06:02:59.827Z,-1.28
2023-12-15T06:05:26.704Z,-1.31
2023-12-15T06:07:53.707Z,-1.31
2023-12-15T06:10:20.521Z,-1.32
2023-12-15T06:12:47.591Z,-1.29
2023-12-15T06:15:14.550Z,-1.26
2023-12-15T06:17:41.827Z,-1.22
2023-12-15T06:20:09.354Z,-1.19
2023-12-15T06:22:36.177Z,-1.18
2023-12-15T06:25:03.111Z,-1.18
2023-12-15T06:27:29.958Z,-1.18
2023-12-15T06:29:56.894Z,-1.15
2023-12-15T06:32:23.766Z,-1.09
2023-12-15T06:34:50.678Z,-1.03
2023-12-15T06:37:17.568Z,-0.99
2023-12-15T06:39:44.876Z,-0.96
2023-12-15T06:42:11.746Z,-0.95
2023-12-15T06:44:38.819Z,-0.96
2023-12-15T06:47:05.787Z,-0.96
2023-12-15T06:49:32.825Z,-0.94
2023-12-15T06:51:59.910Z,-0.91
2023-12-15T06:54:26.749Z,-0.88
2023-12-15T06:56:53.689Z,-0.84
2023-12-15T06:59:20.640Z,-0.81
2023-12-15T07:01:47.711Z,-0.78
2023-12-15T07:04:14.650Z,-0.73
2023-12-15T07:06:42.143Z,-0.70
2023-12-15T07:09:09.036Z,-0.68
2023-12-15T07:11:36.013Z,-0.66
2023-12-15T07:14:02.969Z,-0.65
2023-12-15T07:16:29.964Z,-0.61
2023-12-15T07:18:56.867Z,-0.54
2023-12-15T07:21:24.068Z,-0.51
2023-12-15T07:23:50.893Z,-0.49
2023-12-15T07:26:17.875Z,-0.46
2023-12-15T07:28:44.789Z,-0.43
2023-12-15T07:31:12.730Z,-0.36
2023-12-15T07:33:39.875Z,-0.28
2023-12-15T07:36:07.025Z,-0.19
2023-12-15T07:38:34.161Z,-0.12
2023-12-15T07:41:01.097Z,-0.08
2023-12-15T07:43:28.310Z,-0.04
2023-12-15T07:45:55.548Z,0.04
2023-12-15T07:48:22.584Z,0.15
2023-12-15T07:50:49.449Z,0.24
2023-12-15T07:53:16.562Z,0.31
2023-12-15T07:55:43.523Z,0.36
2023-12-15T07:58:10.475Z,0.39
2023-12-15T08:00:37.319Z,0.40
2023-12-15T08:03:04.331Z,0.43
2023-12-15T08:05:31.393Z,0.48
2023-12-15T08:07:58.805Z,0.58
2023-12-15T08:10:25.602Z,0.70
2023-12-15T08:12:52.542Z,0.83
2023-12-15T08:15:19.387Z,0.89
2023-12-15T08:17:46.385Z,0.92
2023-12-15T08:20:13.319Z,0.98
2023-12-15T08:22:40.158Z,1.06
2023-12-15T08:25:07.065Z,1.13
2023-12-15T08:27:34.429Z,1.18
2023-12-15T08:30:01.487Z,1.22
2023-12-15T08:32:28.438Z,1.24
2023-12-15T08:34:55.468Z,1.28
2023-12-15T08:37:22.304Z,1.30
2023-12-15T08:39:49.557Z,1.37
2023-12-15T08:42:16.409Z,1.44
2023-12-15T08:44:45.107Z,1.51
2023-12-15T08:47:12.354Z,1.56
2023-12-15T08:49:39.499Z,1.60
2023-12-15T08:52:06.450Z,1.65
2023-12-15T08:54:33.377Z,1.71
2023-12-15T08:57:00.346Z,1.73
2023-12-15T08:59:27.313Z,1.76
2023-12-15T09:01:54.194Z,1.81
2023-12-15T09:04:21.135Z,1.85
2023-12-15T09:06:49.778Z,1.86
2023-12-15T09:09:18.541Z,1.87
2023-12-15T09:11:45.388Z,1.92
2023-12-15T09:14:12.796Z,1.95
2023-12-15T09:16:39.804Z,2.01
2023-12-15T09:19:06.791Z,2.05
2023-12-15T09:21:33.752Z,2.07
2023-12-15T09:24:00.697Z,2.09
2023-12-15T09:26:27.685Z,2.12
2023-12-15T09:28:54.579Z,2.15
2023-12-15T09:31:21.540Z,2.17
2023-12-15T09:33:48.936Z,2.19
2023-12-15T09:36:16.090Z,2.23
2023-12-15T09:38:43.076Z,2.27
2023-12-15T09:41:10.039Z,2.31
2023-12-15T09:43:36.864Z,2.33
2023-12-15T09:46:03.703Z,2.34
2023-12-15T09:48:30.790Z,2.35
2023-12-15T09:50:58.064Z,2.42
2023-12-15T09:53:25.578Z,2.50
2023-12-15T09:55:52.638Z,2.49
2023-12-15T09:58:19.464Z,2.46
2023-12-15T10:00:46.557Z,2.49
2023-12-15T10:03:13.566Z,2.51
2023-12-15T10:05:40.523Z,2.51
2023-12-15T10:08:07.445Z,2.53
2023-12-15T10:10:34.382Z,2.56
2023-12-15T10:13:01.327Z,2.64
2023-12-15T10:15:30.360Z,2.74
2023-12-15T10:17:57.889Z,2.81
2023-12-15T10:20:24.828Z,2.84
2023-12-15T10:22:51.776Z,2.92
2023-12-15T10:25:18.612Z,3.02
2023-12-15T10:27:45.542Z,3.09
2023-12-15T10:30:12.413Z,3.12
2023-12-15T10:32:39.862Z,3.14
2023-12-15T10:35:07.127Z,3.13
2023-12-15T10:37:34.058Z,3.11
2023-12-15T10:40:04.385Z,3.12
2023-12-15T10:42:32.843Z,3.14
2023-12-15T10:44:59.695Z,3.15
2023-12-15T10:47:26.686Z,3.15
2023-12-15T10:49:53.761Z,3.15
2023-12-15T10:52:20.826Z,3.15
2023-12-15T10:54:47.972Z,3.13
2023-12-15T10:57:14.937Z,3.13
2023-12-15T10:59:41.883Z,3.17
2023-12-15T11:02:08.761Z,3.20
2023-12-15T11:04:35.757Z,3.27
2023-12-15T11:07:02.709Z,3.36
2023-12-15T11:09:36.171Z,3.40
2023-12-15T11:12:11.018Z,3.45
2023-12-15T11:14:37.892Z,3.46
2023-12-15T11:17:05.312Z,3.47
2023-12-15T11:19:32.124Z,3.48
2023-12-15T11:21:59.010Z,3.45
2023-12-15T11:24:25.954Z,3.43
2023-12-15T11:26:52.797Z,3.45
2023-12-15T11:29:19.775Z,3.49
2023-12-15T11:31:46.782Z,3.45
2023-12-15T11:34:13.766Z,3.46
2023-12-15T11:36:40.777Z,3.47
2023-12-15T11:39:07.520Z,3.47
2023-12-15T11:41:34.502Z,3.46
2023-12-15T11:44:01.453Z,3.50
2023-12-15T11:46:28.451Z,3.55
2023-12-15T11:48:55.398Z,3.62
2023-12-15T11:51:22.437Z,3.72
2023-12-15T11:53:49.293Z,3.80
2023-12-15T11:56:16.267Z,3.87
2023-12-15T11:58:43.065Z,3.91
2023-12-15T12:01:10.427Z,3.96
2023-12-15T12:03:37.367Z,3.96
2023-12-15T12:06:04.346Z,3.96
2023-12-15T12:08:31.185Z,4.02
2023-12-15T12:10:58.003Z,4.05
2023-12-15T12:13:24.839Z,4.09
2023-12-15T12:15:51.686Z,4.14
2023-12-15T12:18:18.708Z,4.21
2023-12-15T12:20:45.794Z,4.28
2023-12-15T12:23:13.056Z,4.23
2023-12-15T12:25:40.073Z,4.19
2023-12-15T12:28:06.918Z,4.15
2023-12-15T12:30:33.908Z,4.14
2023-12-15T12:33:00.949Z,4.18
2023-12-15T12:35:28.089Z,4.27
2023-12-15T12:37:55.117Z,4.41
2023-12-15T12:40:22.070Z,4.58
2023-12-15T12:42:49.197Z,4.75
2023-12-15T12:45:16.161Z,4.99
2023-12-15T12:47:43.201Z,5.27
2023-12-15T12:50:10.334Z,5.55
2023-12-15T12:52:37.772Z,6.07
2023-12-15T12:55:05.045Z,6.53
2023-12-15T12:57:32.014Z,6.73
2023-12-15T12:59:58.820Z,6.74
2023-12-15T13:02:25.879Z,6.56
2023-12-15T13:04:53.136Z,6.23
2023-12-15T13:07:20.071Z,5.90
2023-12-15T13:09:46.931Z,5.62
2023-12-15T13:12:13.857Z,5.37
2023-12-15T13:14:40.796Z,5.19
2023-12-15T13:17:07.917Z,5.08
2023-12-15T13:19:34.748Z,4.96
2023-12-15T13:22:01.748Z,4.80
2023-12-15T13:24:28.689Z,4.63
2023-12-15T13:26:55.777Z,4.47
2023-12-15T13:29:30.148Z,4.32
2023-12-15T13:32:00.673Z,4.22
2023-12-15T13:34:27.765Z,4.14
2023-12-15T13:36:54.677Z,4.06
2023-12-15T13:39:21.690Z,4.01
2023-12-15T13:41:48.879Z,3.98
2023-12-15T13:44:15.947Z,3.97
2023-12-15T13:46:42.870Z,3.97
2023-12-15T13:49:09.896Z,3.94
2023-12-15T13:51:37.048Z,3.91
2023-12-15T13:54:03.897Z,3.85
2023-12-15T13:56:30.899Z,3.76
2023-12-15T13:58:59.203Z,3.65
2023-12-15T14:01:28.136Z,3.54
2023-12-15T14:03:55.179Z,3.45
2023-12-15T14:06:22.154Z,3.38
2023-12-15T14:08:49.175Z,3.35
2023-12-15T14:11:16.523Z,3.35
2023-12-15T14:13:43.357Z,3.34
2023-12-15T14:16:10.629Z,3.31
2023-12-15T14:18:38.007Z,3.25
2023-12-15T14:21:04.992Z,3.17
2023-12-15T14:23:32.014Z,3.10
2023-12-15T14:25:58.871Z,3.03
2023-12-15T14:28:25.839Z,2.98
2023-12-15T14:30:52.797Z,2.94
2023-12-15T14:33:20.227Z,2.93
2023-12-15T14:35:47.300Z,2.91
2023-12-15T14:38:14.358Z,2.90
2023-12-15T14:40:41.162Z,2.88
2023-12-15T14:43:08.107Z,2.84
2023-12-15T14:45:34.948Z,2.77
2023-12-15T14:48:19.484Z,2.71
2023-12-15T14:50:48.749Z,2.71
2023-12-15T14:53:16.194Z,2.69
2023-12-15T14:55:43.002Z,2.67
2023-12-15T14:58:09.848Z,2.64
2023-12-15T15:00:36.815Z,2.59
2023-12-15T15:03:04.037Z,2.54
2023-12-15T15:05:31.228Z,2.48
2023-12-15T15:07:58.304Z,2.42
2023-12-15T15:10:25.273Z,2.37
2023-12-15T15:12:52.138Z,2.32
2023-12-15T15:15:19.383Z,2.26
2023-12-15T15:17:46.357Z,2.20
2023-12-15T15:20:13.403Z,2.14
2023-12-15T15:22:40.454Z,2.05
2023-12-15T15:25:07.458Z,1.95
2023-12-15T15:27:34.417Z,1.83
2023-12-15T15:30:01.382Z,1.72
2023-12-15T15:32:28.388Z,1.61
2023-12-15T15:35:03.156Z,1.49
2023-12-15T15:37:34.260Z,1.38
2023-12-15T15:40:01.262Z,1.27
2023-12-15T15:42:28.365Z,1.15
2023-12-15T15:44:55.203Z,1.02
2023-12-15T15:47:25.219Z,0.93
2023-12-15T15:49:57.205Z,0.86
2023-12-15T15:52:24.443Z,0.80
2023-12-15T15:54:51.615Z,0.73
2023-12-15T15:57:18.518Z,0.68
2023-12-15T15:59:45.471Z,0.61
2023-12-15T16:02:12.555Z,0.54
2023-12-15T16:04:39.641Z,0.48
2023-12-15T16:07:06.831Z,0.43
2023-12-15T16:09:33.553Z,0.38
2023-12-15T16:12:00.512Z,0.34
2023-12-15T16:14:27.353Z,0.30
2023-12-15T16:16:54.495Z,0.25
2023-12-15T16:19:21.768Z,0.18
2023-12-15T16:21:48.816Z,0.10
2023-12-15T16:24:16.261Z,0.04
2023-12-15T16:26:44.015Z,-0.01
2023-12-15T16:29:10.948Z,-0.05
2023-12-15T16:31:37.880Z,-0.08
2023-12-15T16:34:05.124Z,-0.13
2023-12-15T16:36:32.112Z,-0.15
2023-12-15T16:38:59.342Z,-0.15
2023-12-15T16:41:26.204Z,-0.14
2023-12-15T16:43:53.119Z,-0.18
2023-12-15T16:46:19.983Z,-0.19
2023-12-15T16:48:47.015Z,-0.21
2023-12-15T16:51:13.955Z,-0.24
2023-12-15T16:53:41.001Z,-0.29
2023-12-15T16:56:08.052Z,-0.33
2023-12-15T16:58:35.014Z,-0.35
2023-12-15T17:01:01.965Z,-0.35
2023-12-15T17:03:31.654Z,-0.33
2023-12-15T17:05:58.641Z,-0.34
2023-12-15T17:08:25.536Z,-0.33
2023-12-15T17:10:52.385Z,-0.32
2023-12-15T17:13:19.348Z,-0.33
2023-12-15T17:15:46.192Z,-0.35
2023-12-15T17:18:13.279Z,-0.34
2023-12-15T17:20:40.690Z,-0.31
2023-12-15T17:23:07.639Z,-0.27
2023-12-15T17:25:34.468Z,-0.21
2023-12-15T17:28:01.442Z,-0.19
2023-12-15T17:30:28.397Z,-0.17
2023-12-15T17:32:55.320Z,-0.13
2023-12-15T17:35:22.334Z,-0.12
2023-12-15T17:37:49.287Z,-0.08
2023-12-15T17:40:16.576Z,-0.02
2023-12-15T17:42:43.486Z,0.04
2023-12-15T17:45:10.529Z,0.11
2023-12-15T17:47:37.673Z,0.18
2023-12-15T17:50:04.976Z,0.24
2023-12-15T17:52:31.888Z,0.29
2023-12-15T17:54:58.740Z,0.33
2023-12-15T17:57:25.560Z,0.38
2023-12-15T17:59:52.500Z,0.41
2023-12-15T18:02:19.758Z,0.44
2023-12-15T18:04:46.776Z,0.46
2023-12-15T18:07:13.744Z,0.47
2023-12-15T18:09:40.640Z,0.45
2023-12-15T18:12:07.634Z,0.43
2023-12-15T18:14:34.578Z,0.42
2023-12-15T18:17:01.416Z,0.41
2023-12-15T18:19:28.386Z,0.43
2023-12-15T18:21:55.340Z,0.44
2023-12-15T18:24:22.357Z,0.44
2023-12-15T18:26:49.500Z,0.42
2023-12-15T18:29:16.448Z,0.43
2023-12-15T18:31:43.336Z,0.43
2023-12-15T18:34:10.424Z,0.43
2023-12-15T18:36:37.388Z,0.46
2023-12-15T18:39:04.326Z,0.49
2023-12-15T18:41:31.273Z,0.50
2023-12-15T18:43:58.010Z,0.52
2023-12-15T18:46:24.898Z,0.57
2023-12-15T18:48:52.325Z,0.61
2023-12-15T18:51:19.404Z,0.65
2023-12-15T18:53:46.512Z,0.70
2023-12-15T18:56:13.354Z,0.74
2023-12-15T18:58:40.323Z,0.77
2023-12-15T19:01:07.555Z,0.76
2023-12-15T19:03:34.553Z,0.74
2023-12-15T19:06:01.641Z,0.72
2023-12-15T19:08:28.489Z,0.70
2023-12-15T19:10:55.421Z,0.69
2023-12-15T19:13:22.441Z,0.64
2023-12-15T19:15:49.955Z,0.60
2023-12-15T19:18:16.970Z,0.58
2023-12-15T19:20:43.908Z,0.58
2023-12-15T19:23:10.860Z,0.58
2023-12-15T19:25:37.797Z,0.60
2023-12-15T19:28:05.023Z,0.60
2023-12-15T19:30:31.972Z,0.59
2023-12-15T19:32:58.952Z,0.58
2023-12-15T19:35:26.121Z,0.59
2023-12-15T19:37:53.050Z,0.61
2023-12-15T19:40:19.939Z,0.60
2023-12-15T19:42:46.941Z,0.57
2023-12-15T19:45:13.785Z,0.55
2023-12-15T19:47:40.993Z,0.53
2023-12-15T19:50:08.556Z,0.50
2023-12-15T19:52:35.524Z,0.49
2023-12-15T19:55:02.561Z,0.49
2023-12-15T19:57:29.539Z,0.49
2023-12-15T19:59:56.456Z,0.50
2023-12-15T20:02:23.296Z,0.48
2023-12-15T20:04:50.412Z,0.47
2023-12-15T20:07:17.637Z,0.47
2023-12-15T20:09:45.005Z,0.46
2023-12-15T20:12:12.001Z,0.48
2023-12-15T20:14:38.945Z,0.52
2023-12-15T20:17:05.794Z,0.55
2023-12-15T20:19:32.573Z,0.60
2023-12-15T20:21:59.395Z,0.61
2023-12-15T20:24:26.313Z,0.61
2023-12-15T20:26:53.147Z,0.61
2023-12-15T20:29:20.041Z,0.62
2023-12-15T20:31:47.312Z,0.64
2023-12-15T20:34:14.556Z,0.67
2023-12-15T20:36:41.580Z,0.69
2023-12-15T20:39:08.591Z,0.71
2023-12-15T20:41:35.535Z,0.73
2023-12-15T20:44:02.481Z,0.77
2023-12-15T20:46:29.425Z,0.82
2023-12-15T20:48:56.350Z,0.86
2023-12-15T20:51:23.509Z,0.88
2023-12-15T20:53:50.766Z,0.88
2023-12-15T20:56:17.712Z,0.89
2023-12-15T20:58:44.559Z,0.93
2023-12-15T21:01:11.546Z,0.99
2023-12-15T21:03:38.764Z,1.06
2023-12-15T21:06:05.601Z,1.09
2023-12-15T21:08:32.463Z,1.11
2023-12-15T21:10:59.284Z,1.13
2023-12-15T21:13:26.165Z,1.16
2023-12-15T21:15:53.506Z,1.21
2023-12-15T21:18:20.389Z,1.23
2023-12-15T21:20:47.377Z,1.28
2023-12-15T21:23:14.213Z,1.32
2023-12-15T21:25:41.147Z,1.33
2023-12-15T21:28:07.925Z,1.36
2023-12-15T21:30:34.909Z,1.40
2023-12-15T21:33:02.108Z,1.43
2023-12-15T21:35:32.431Z,1.46
2023-12-15T21:38:03.747Z,1.51
2023-12-15T21:40:30.761Z,1.55
2023-12-15T21:42:57.815Z,1.57
2023-12-15T21:45:24.796Z,1.59
2023-12-15T21:47:51.835Z,1.61
2023-12-15T21:50:18.821Z,1.63
2023-12-15T21:52:45.828Z,1.66
2023-12-15T21:55:13.018Z,1.67
2023-12-15T21:57:40.415Z,1.72
2023-12-15T22:00:07.539Z,1.77
2023-12-15T22:02:34.334Z,1.79
2023-12-15T22:05:01.163Z,1.82
2023-12-15T22:07:28.044Z,1.85
2023-12-15T22:09:55.031Z,1.87
2023-12-15T22:12:22.113Z,1.91
2023-12-15T22:14:49.050Z,1.95
2023-12-15T22:17:16.238Z,1.97
2023-12-15T22:19:43.170Z,1.99
2023-12-15T22:22:10.223Z,2.00
2023-12-15T22:24:37.139Z,2.00
2023-12-15T22:27:04.180Z,2.01
2023-12-15T22:29:31.022Z,2.01
2023-12-15T22:31:58.021Z,2.03
2023-12-15T22:34:25.062Z,2.08
2023-12-15T22:36:52.199Z,2.12
2023-12-15T22:39:19.437Z,2.15
2023-12-15T22:41:46.252Z,2.18
2023-12-15T22:44:13.192Z,2.19
2023-12-15T22:46:40.043Z,2.21
2023-12-15T22:49:07.080Z,2.21
2023-12-15T22:51:34.036Z,2.20
2023-12-15T22:54:00.970Z,2.21
2023-12-15T22:56:28.025Z,2.24
2023-12-15T22:58:54.867Z,2.29
2023-12-15T23:01:21.928Z,2.33
2023-12-15T23:03:49.258Z,2.33
2023-12-15T23:06:16.314Z,2.32
2023-12-15T23:08:43.157Z,2.31
2023-12-15T23:11:10.101Z,2.30
2023-12-15T23:13:36.936Z,2.29
2023-12-15T23:16:04.049Z,2.29
2023-12-15T23:18:31.228Z,2.30
2023-12-15T23:20:58.491Z,2.32
2023-12-15T23:23:25.339Z,2.30
2023-12-15T23:25:52.277Z,2.29
2023-12-15T23:28:19.200Z,2.28
2023-12-15T23:30:46.319Z,2.27
2023-12-15T23:33:13.315Z,2.27
2023-12-15T23:35:40.357Z,2.27
2023-12-15T23:38:07.301Z,2.30
2023-12-15T23:40:34.149Z,2.33
2023-12-15T23:43:01.423Z,2.35
2023-12-15T23:45:28.338Z,2.37
2023-12-15T23:47:55.274Z,2.41
2023-12-15T23:50:22.343Z,2.44
2023-12-15T23:52:49.281Z,2.50
2023-12-15T23:55:16.279Z,2.57
2023-12-15T23:57:43.215Z,2.63
